createdAt,value
2018-04-10T00:00:13.548Z,8.00
2018-04-10T00:01:13.515Z,8.00
2018-04-10T00:02:13.485Z,8.00
2018-04-10T00:03:13.467Z,8.00
2018-04-10T00:04:13.456Z,8.00
2018-04-10T00:05:13.437Z,8.00
2018-04-10T00:06:13.427Z,8.00
2018-04-10T00:07:13.416Z,8.00
2018-04-10T00:08:13.408Z,8.00
2018-04-10T00:09:13.382Z,8.00
2018-04-10T00:10:13.380Z,8.00
2018-04-10T00:11:13.349Z,8.00
2018-04-10T00:12:13.333Z,8.00
2018-04-10T00:13:13.317Z,8.00
2018-04-10T00:14:13.327Z,8.00
2018-04-10T00:15:13.296Z,8.00
2018-04-10T00:16:13.274Z,8.00
2018-04-10T00:17:13.262Z,8.00
2018-04-10T00:18:13.246Z,8.00
2018-04-10T00:19:13.231Z,8.00
2018-04-10T00:20:13.303Z,8.00
2018-04-10T00:21:13.202Z,8.00
2018-04-10T00:22:13.190Z,8.00
2018-04-10T00:23:13.177Z,8.00
2018-04-10T00:24:13.156Z,8.00
2018-04-10T00:25:13.141Z,8.00
2018-04-10T00:26:13.126Z,8.00
2018-04-10T00:27:13.111Z,8.00
2018-04-10T00:28:13.182Z,8.00
2018-04-10T00:29:13.082Z,8.00
2018-04-10T00:30:13.071Z,8.00
2018-04-10T00:31:13.052Z,8.00
2018-04-10T00:32:13.041Z,8.00
2018-04-10T00:33:13.029Z,8.00
2018-04-10T00:34:13.012Z,8.00
2018-04-10T00:35:13.004Z,8.00
2018-04-10T00:36:12.986Z,8.00
2018-04-10T00:37:12.964Z,8.00
2018-04-10T00:38:12.951Z,8.00
2018-04-10T00:39:12.933Z,8.00
2018-04-10T00:40:12.920Z,8.00
2018-04-10T00:41:12.906Z,8.00
2018-04-10T00:42:12.893Z,8.00
2018-04-10T00:43:12.876Z,8.00
2018-04-10T00:44:12.876Z,8.00
2018-04-10T00:45:12.848Z,8.00
2018-04-10T00:46:12.838Z,8.00
2018-04-10T00:47:12.823Z,8.00
2018-04-10T00:48:12.808Z,8.00
2018-04-10T00:49:12.792Z,8.00
2018-04-10T00:50:12.777Z,8.00
2018-04-10T00:51:12.761Z,8.00
2018-04-10T00:52:12.747Z,8.00
2018-04-10T00:53:12.732Z,8.00
2018-04-10T00:54:12.733Z,8.00
2018-04-10T00:55:12.702Z,8.00
2018-04-10T00:56:12.689Z,8.00
2018-04-10T00:57:12.677Z,8.00
2018-04-10T00:58:12.668Z,8.00
2018-04-10T00:59:12.645Z,8.00
2018-04-10T01:00:12.704Z,8.00
2018-04-10T01:01:12.615Z,8.00
2018-04-10T01:02:12.601Z,8.00
2018-04-10T01:03:12.590Z,8.00
2018-04-10T01:04:12.577Z,8.00
2018-04-10T01:05:12.558Z,8.00
2018-04-10T01:06:12.546Z,8.00
2018-04-10T01:07:12.536Z,8.00
2018-04-10T01:08:12.515Z,8.00
2018-04-10T01:09:12.500Z,8.00
2018-04-10T01:10:12.484Z,8.00
2018-04-10T01:11:12.470Z,8.00
2018-04-10T01:12:12.457Z,8.00
2018-04-10T01:13:12.528Z,8.00
2018-04-10T01:14:12.430Z,8.00
2018-04-10T01:15:12.414Z,8.00
2018-04-10T01:16:12.407Z,8.00
2018-04-10T01:17:12.386Z,8.00
2018-04-10T01:18:12.380Z,8.00
2018-04-10T01:19:12.354Z,8.00
2018-04-10T01:20:12.341Z,8.00
2018-04-10T01:21:12.332Z,8.00
2018-04-10T01:22:12.313Z,8.00
2018-04-10T01:23:12.298Z,8.00
2018-04-10T01:24:12.283Z,8.00
2018-04-10T01:25:12.269Z,8.00
2018-04-10T01:26:12.264Z,8.00
2018-04-10T01:27:12.239Z,8.00
2018-04-10T01:28:12.230Z,8.00
2018-04-10T01:29:12.208Z,8.00
2018-04-10T01:30:12.195Z,8.00
2018-04-10T01:31:12.183Z,8.00
2018-04-10T01:32:12.166Z,8.00
2018-04-10T01:33:12.153Z,8.00
2018-04-10T01:34:12.142Z,8.00
2018-04-10T01:35:12.122Z,8.00
2018-04-10T01:36:12.108Z,8.00
2018-04-10T01:37:12.096Z,8.00
2018-04-10T01:38:12.087Z,8.00
2018-04-10T01:39:12.073Z,8.00
2018-04-10T01:40:12.069Z,8.00
2018-04-10T01:41:12.034Z,8.00
2018-04-10T01:42:12.023Z,8.00
2018-04-10T01:43:12.062Z,8.00
2018-04-10T01:44:11.992Z,8.00
2018-04-10T01:45:11.978Z,8.00
2018-04-10T01:46:11.961Z,8.00
2018-04-10T01:47:11.946Z,8.00
2018-04-10T01:48:11.931Z,8.00
2018-04-10T01:49:11.917Z,8.00
2018-04-10T01:50:11.903Z,8.00
2018-04-10T01:51:11.894Z,8.00
2018-04-10T01:52:11.875Z,8.00
2018-04-10T01:53:11.856Z,8.00
2018-04-10T01:54:11.846Z,8.00
2018-04-10T01:55:11.826Z,8.00
2018-04-10T01:56:11.881Z,8.00
2018-04-10T01:57:11.802Z,8.00
2018-04-10T01:58:11.781Z,8.00
2018-04-10T01:59:11.899Z,8.00
2018-04-10T02:00:11.751Z,8.00
2018-04-10T02:01:11.750Z,8.00
2018-04-10T02:02:11.724Z,8.00
2018-04-10T02:03:11.709Z,8.00
2018-04-10T02:04:11.693Z,8.00
2018-04-10T02:05:11.682Z,8.00
2018-04-10T02:06:11.667Z,8.00
2018-04-10T02:07:11.650Z,8.00
2018-04-10T02:08:11.635Z,8.00
2018-04-10T02:09:11.620Z,8.00
2018-04-10T02:10:11.604Z,8.00
2018-04-10T02:11:11.590Z,8.00
2018-04-10T02:12:11.580Z,8.00
2018-04-10T02:13:11.569Z,8.00
2018-04-10T02:14:11.549Z,8.00
2018-04-10T02:15:11.635Z,8.00
2018-04-10T02:16:11.519Z,8.00
2018-04-10T02:17:11.503Z,8.00
2018-04-10T02:18:11.491Z,8.00
2018-04-10T02:19:11.471Z,8.00
2018-04-10T02:20:11.459Z,8.00
2018-04-10T02:21:11.443Z,8.00
2018-04-10T02:22:11.429Z,8.00
2018-04-10T02:23:11.426Z,8.00
2018-04-10T02:24:11.398Z,8.00
2018-04-10T02:25:11.386Z,8.00
2018-04-10T02:26:11.373Z,8.00
2018-04-10T02:27:11.353Z,8.00
2018-04-10T02:28:11.340Z,8.00
2018-04-10T02:29:11.329Z,8.00
2018-04-10T02:30:11.311Z,8.00
2018-04-10T02:31:11.293Z,8.00
2018-04-10T02:32:11.281Z,8.00
2018-04-10T02:33:11.268Z,8.00
2018-04-10T02:34:11.254Z,8.00
2018-04-10T02:35:11.239Z,8.00
2018-04-10T02:36:11.220Z,8.00
2018-04-10T02:37:11.207Z,8.00
2018-04-10T02:38:11.194Z,8.00
2018-04-10T02:39:11.313Z,8.00
2018-04-10T02:40:11.164Z,8.00
2018-04-10T02:41:11.147Z,8.00
2018-04-10T02:42:11.192Z,8.00
2018-04-10T02:43:11.118Z,8.00
2018-04-10T02:44:11.104Z,8.00
2018-04-10T02:45:11.087Z,8.00
2018-04-10T02:46:11.074Z,8.00
2018-04-10T02:47:11.056Z,8.00
2018-04-10T02:48:11.042Z,8.00
2018-04-10T02:49:11.027Z,8.00
2018-04-10T02:50:11.012Z,8.00
2018-04-10T02:51:10.997Z,8.00
2018-04-10T02:52:10.982Z,8.00
2018-04-10T02:53:10.967Z,8.00
2018-04-10T02:54:10.955Z,8.00
2018-04-10T02:55:11.061Z,8.00
2018-04-10T02:56:10.941Z,8.00
2018-04-10T02:57:10.906Z,8.00
2018-04-10T02:58:10.918Z,8.00
2018-04-10T02:59:10.874Z,8.00
2018-04-10T03:00:10.866Z,8.00
2018-04-10T03:01:10.848Z,8.00
2018-04-10T03:02:10.840Z,8.00
2018-04-10T03:03:10.860Z,8.00
2018-04-10T03:04:10.806Z,8.00
2018-04-10T03:05:10.788Z,8.00
2018-04-10T03:06:10.776Z,8.00
2018-04-10T03:07:10.755Z,8.00
2018-04-10T03:08:10.747Z,8.00
2018-04-10T03:09:10.727Z,8.00
2018-04-10T03:10:10.713Z,8.00
2018-04-10T03:11:10.695Z,8.00
2018-04-10T03:12:10.685Z,8.00
2018-04-10T03:13:10.666Z,8.00
2018-04-10T03:14:10.653Z,8.00
2018-04-10T03:15:10.633Z,8.00
2018-04-10T03:16:10.618Z,8.00
2018-04-10T03:17:10.606Z,8.00
2018-04-10T03:18:10.592Z,8.00
2018-04-10T03:19:10.770Z,8.00
2018-04-10T03:20:10.560Z,8.00
2018-04-10T03:21:10.544Z,8.00
2018-04-10T03:22:10.606Z,8.00
2018-04-10T03:23:10.515Z,8.00
2018-04-10T03:24:10.502Z,8.00
2018-04-10T03:25:10.483Z,8.00
2018-04-10T03:26:10.467Z,8.00
2018-04-10T03:27:10.456Z,8.00
2018-04-10T03:28:10.443Z,8.00
2018-04-10T03:29:10.422Z,8.00
2018-04-10T03:30:10.408Z,8.00
2018-04-10T03:31:10.392Z,8.00
2018-04-10T03:32:10.552Z,8.00
2018-04-10T03:33:10.374Z,8.00
2018-04-10T03:34:10.344Z,8.00
2018-04-10T03:35:10.366Z,8.00
2018-04-10T03:36:10.315Z,8.00
2018-04-10T03:37:10.302Z,8.00
2018-04-10T03:38:10.284Z,8.00
2018-04-10T03:39:10.278Z,8.00
2018-04-10T03:40:10.254Z,8.00
2018-04-10T03:41:10.247Z,8.00
2018-04-10T03:42:10.223Z,8.00
2018-04-10T03:43:10.210Z,8.00
2018-04-10T03:44:10.193Z,8.00
2018-04-10T03:45:10.175Z,8.00
2018-04-10T03:46:10.161Z,8.00
2018-04-10T03:47:10.145Z,8.00
2018-04-10T03:48:10.180Z,8.00
2018-04-10T03:49:10.116Z,8.00
2018-04-10T03:50:10.119Z,8.00
2018-04-10T03:51:10.179Z,8.00
2018-04-10T03:52:10.075Z,8.00
2018-04-10T03:53:10.050Z,8.00
2018-04-10T03:54:10.068Z,8.00
2018-04-10T03:55:10.022Z,8.00
2018-04-10T03:56:10.004Z,8.00
2018-04-10T03:57:09.989Z,8.00
2018-04-10T03:58:09.974Z,8.00
2018-04-10T03:59:09.958Z,8.00
2018-04-10T04:00:09.939Z,8.00
2018-04-10T04:01:09.927Z,8.00
2018-04-10T04:02:09.937Z,8.00
2018-04-10T04:03:09.898Z,8.00
2018-04-10T04:04:09.879Z,8.00
2018-04-10T04:05:09.866Z,8.00
2018-04-10T04:06:09.866Z,12.00
2018-04-10T04:07:09.880Z,12.00
2018-04-10T04:08:09.821Z,8.00
2018-04-10T04:09:09.802Z,8.00
2018-04-10T04:10:09.849Z,8.00
2018-04-10T04:11:09.773Z,8.00
2018-04-10T04:12:09.757Z,8.00
2018-04-10T04:13:09.738Z,8.00
2018-04-10T04:14:09.728Z,12.00
2018-04-10T04:15:09.709Z,12.00
2018-04-10T04:16:09.705Z,8.00
2018-04-10T04:17:09.683Z,12.00
2018-04-10T04:18:09.666Z,12.00
2018-04-10T04:19:09.649Z,12.00
2018-04-10T04:20:09.632Z,12.00
2018-04-10T04:21:09.615Z,12.00
2018-04-10T04:22:09.611Z,16.00
2018-04-10T04:23:09.592Z,16.00
2018-04-10T04:24:09.571Z,20.00
2018-04-10T04:25:09.556Z,20.00
2018-04-10T04:26:09.545Z,24.00
2018-04-10T04:27:09.520Z,24.00
2018-04-10T04:28:09.510Z,32.00
2018-04-10T04:29:09.489Z,32.00
2018-04-10T04:30:09.473Z,36.00
2018-04-10T04:31:09.616Z,32.00
2018-04-10T04:32:09.479Z,36.00
2018-04-10T04:33:09.428Z,44.00
2018-04-10T04:34:09.416Z,52.00
2018-04-10T04:35:09.396Z,56.00
2018-04-10T04:36:09.386Z,64.00
2018-04-10T04:37:09.365Z,72.00
2018-04-10T04:38:09.353Z,76.00
2018-04-10T04:39:09.334Z,88.00
2018-04-10T04:40:09.316Z,96.00
2018-04-10T04:41:09.302Z,104.00
2018-04-10T04:42:09.288Z,116.00
2018-04-10T04:43:09.271Z,128.00
2018-04-10T04:44:09.256Z,140.00
2018-04-10T04:45:09.238Z,160.00
2018-04-10T04:46:09.225Z,172.00
2018-04-10T04:47:09.206Z,188.00
2018-04-10T04:48:09.192Z,208.00
2018-04-10T04:49:09.176Z,228.00
2018-04-10T04:50:09.265Z,252.00
2018-04-10T04:51:09.144Z,276.00
2018-04-10T04:52:09.131Z,308.00
2018-04-10T04:53:09.114Z,340.00
2018-04-10T04:54:09.100Z,380.00
2018-04-10T04:55:09.083Z,424.00
2018-04-10T04:56:09.065Z,480.00
2018-04-10T04:57:09.051Z,536.00
2018-04-10T04:58:09.037Z,604.00
2018-04-10T04:59:09.025Z,680.00
2018-04-10T05:00:09.003Z,756.00
2018-04-10T05:01:08.990Z,832.00
2018-04-10T05:02:08.971Z,908.00
2018-04-10T05:03:08.963Z,988.00
2018-04-10T05:04:08.940Z,1064.00
2018-04-10T05:05:08.924Z,1144.00
2018-04-10T05:06:08.909Z,1216.00
2018-04-10T05:07:08.892Z,1296.00
2018-04-10T05:08:08.882Z,1380.00
2018-04-10T05:09:08.878Z,1464.00
2018-04-10T05:10:08.849Z,1540.00
2018-04-10T05:11:08.839Z,1628.00
2018-04-10T05:12:08.815Z,1724.00
2018-04-10T05:13:08.798Z,1844.00
2018-04-10T05:14:08.785Z,1976.00
2018-04-10T05:15:08.777Z,2112.00
2018-04-10T05:16:08.751Z,2260.00
2018-04-10T05:17:08.744Z,2400.00
2018-04-10T05:18:08.722Z,2516.00
2018-04-10T05:19:08.704Z,2616.00
2018-04-10T05:20:08.691Z,2708.00
2018-04-10T05:21:08.672Z,2796.00
2018-04-10T05:22:08.658Z,2884.00
2018-04-10T05:23:08.642Z,2968.00
2018-04-10T05:24:08.629Z,3048.00
2018-04-10T05:25:08.617Z,3124.00
2018-04-10T05:26:08.597Z,3188.00
2018-04-10T05:27:08.581Z,3240.00
2018-04-10T05:28:08.570Z,3280.00
2018-04-10T05:29:08.549Z,3300.00
2018-04-10T05:30:08.552Z,3324.00
2018-04-10T05:31:08.535Z,3340.00
2018-04-10T05:32:08.506Z,3388.00
2018-04-10T05:33:08.544Z,3428.00
2018-04-10T05:34:08.477Z,3444.00
2018-04-10T05:35:08.462Z,3440.00
2018-04-10T05:36:08.440Z,3472.00
2018-04-10T05:37:08.434Z,3500.00
2018-04-10T05:38:08.410Z,3528.00
2018-04-10T05:39:08.395Z,3552.00
2018-04-10T05:40:08.384Z,3644.00
2018-04-10T05:41:08.366Z,3760.00
2018-04-10T05:42:08.348Z,3904.00
2018-04-10T05:43:08.337Z,4056.00
2018-04-10T05:44:08.318Z,4176.00
2018-04-10T05:45:08.305Z,4272.00
2018-04-10T05:46:08.290Z,4340.00
2018-04-10T05:47:08.286Z,4428.00
2018-04-10T05:48:08.256Z,4544.00
2018-04-10T05:49:08.259Z,4748.00
2018-04-10T05:50:08.227Z,4984.00
2018-04-10T05:51:08.217Z,5256.00
2018-04-10T05:52:08.250Z,5392.00
2018-04-10T05:53:08.201Z,5492.00
2018-04-10T05:54:08.166Z,5556.00
2018-04-10T05:55:08.154Z,5604.00
2018-04-10T05:56:08.138Z,5748.00
2018-04-10T05:57:08.128Z,5948.00
2018-04-10T05:58:08.106Z,6308.00
2018-04-10T05:59:08.099Z,7324.00
2018-04-10T06:00:08.080Z,8332.00
2018-04-10T06:01:08.073Z,9184.00
2018-04-10T06:02:08.047Z,10292.00
2018-04-10T06:03:08.035Z,10376.00
2018-04-10T06:04:08.017Z,9820.00
2018-04-10T06:05:08.002Z,9332.00
2018-04-10T06:06:07.989Z,8960.00
2018-04-10T06:07:07.972Z,9584.00
2018-04-10T06:08:08.015Z,10864.00
2018-04-10T06:09:07.947Z,12104.00
2018-04-10T06:10:07.932Z,12504.00
2018-04-10T06:11:07.915Z,13284.00
2018-04-10T06:12:07.902Z,14496.00
2018-04-10T06:13:07.896Z,15840.00
2018-04-10T06:14:07.883Z,16608.00
2018-04-10T06:15:07.861Z,17344.00
2018-04-10T06:16:07.912Z,18432.00
2018-04-10T06:17:07.839Z,19552.00
2018-04-10T06:18:07.820Z,20416.00
2018-04-10T06:19:07.808Z,19744.00
2018-04-10T06:20:07.795Z,19264.00
2018-04-10T06:21:07.780Z,20096.00
2018-04-10T06:22:07.766Z,20256.00
2018-04-10T06:23:07.752Z,17152.00
2018-04-10T06:24:07.748Z,16864.00
2018-04-10T06:25:07.731Z,20096.00
2018-04-10T06:26:07.717Z,23360.00
2018-04-10T06:27:07.718Z,22560.00
2018-04-10T06:28:07.693Z,22080.00
2018-04-10T06:29:07.683Z,21024.00
2018-04-10T06:30:07.671Z,20704.00
2018-04-10T06:31:07.654Z,24672.00
2018-04-10T06:32:07.746Z,23648.00
2018-04-10T06:33:07.633Z,24128.00
2018-04-10T06:34:07.624Z,22944.00
2018-04-10T06:35:07.612Z,18560.00
2018-04-10T06:36:07.600Z,18912.00
2018-04-10T06:37:07.590Z,17312.00
2018-04-10T06:38:07.580Z,13452.00
2018-04-10T06:39:07.569Z,12100.00
2018-04-10T06:40:07.571Z,11768.00
2018-04-10T06:41:07.546Z,11652.00
2018-04-10T06:42:07.532Z,11664.00
2018-04-10T06:43:07.537Z,11768.00
2018-04-10T06:44:07.514Z,11852.00
2018-04-10T06:45:07.517Z,11936.00
2018-04-10T06:46:07.500Z,12008.00
2018-04-10T06:47:07.486Z,12052.00
2018-04-10T06:48:07.469Z,12060.00
2018-04-10T06:49:07.459Z,12100.00
2018-04-10T06:50:07.449Z,12236.00
2018-04-10T06:51:07.434Z,12348.00
2018-04-10T06:52:07.424Z,12444.00
2018-04-10T06:53:07.414Z,12496.00
2018-04-10T06:54:07.407Z,12484.00
2018-04-10T06:55:07.392Z,12440.00
2018-04-10T06:56:07.382Z,12400.00
2018-04-10T06:57:07.368Z,12368.00
2018-04-10T06:58:07.372Z,12340.00
2018-04-10T06:59:07.347Z,12324.00
2018-04-10T07:00:07.333Z,12328.00
2018-04-10T07:01:07.348Z,12364.00
2018-04-10T07:02:07.311Z,12388.00
2018-04-10T07:03:07.298Z,12420.00
2018-04-10T07:04:07.287Z,12476.00
2018-04-10T07:05:07.276Z,12552.00
2018-04-10T07:06:07.271Z,12620.00
2018-04-10T07:07:07.255Z,12680.00
2018-04-10T07:08:07.239Z,12724.00
2018-04-10T07:09:07.229Z,12808.00
2018-04-10T07:10:07.217Z,12912.00
2018-04-10T07:11:07.205Z,12984.00
2018-04-10T07:12:07.205Z,13076.00
2018-04-10T07:13:07.189Z,13172.00
2018-04-10T07:14:07.171Z,13280.00
2018-04-10T07:15:07.156Z,13404.00
2018-04-10T07:16:07.145Z,13520.00
2018-04-10T07:17:07.138Z,13744.00
2018-04-10T07:18:07.127Z,14316.00
2018-04-10T07:19:07.107Z,18560.00
2018-04-10T07:20:07.098Z,26048.00
2018-04-10T07:21:07.084Z,34848.00
2018-04-10T07:22:07.127Z,25312.00
2018-04-10T07:23:07.065Z,26816.00
2018-04-10T07:24:07.049Z,33856.00
2018-04-10T07:25:07.036Z,33120.00
2018-04-10T07:26:07.030Z,27232.00
2018-04-10T07:27:07.016Z,21536.00
2018-04-10T07:28:07.003Z,25408.00
2018-04-10T07:29:06.995Z,30144.00
2018-04-10T07:30:06.984Z,25184.00
2018-04-10T07:31:06.982Z,23040.00
2018-04-10T07:32:06.958Z,33440.00
2018-04-10T07:33:06.962Z,40384.00
2018-04-10T07:34:06.960Z,43008.00
2018-04-10T07:35:07.018Z,46048.00
2018-04-10T07:36:06.927Z,38752.00
2018-04-10T07:37:06.917Z,38912.00
2018-04-10T07:38:06.956Z,43744.00
2018-04-10T07:39:06.889Z,40384.00
2018-04-10T07:40:06.887Z,28128.00
2018-04-10T07:41:06.874Z,25632.00
2018-04-10T07:42:06.862Z,30816.00
2018-04-10T07:43:06.854Z,27936.00
2018-04-10T07:44:06.847Z,23968.00
2018-04-10T07:45:06.838Z,22656.00
2018-04-10T07:46:06.844Z,27584.00
2018-04-10T07:47:06.822Z,31392.00
2018-04-10T07:48:06.812Z,28576.00
2018-04-10T07:49:06.808Z,26848.00
2018-04-10T07:50:06.798Z,27584.00
2018-04-10T07:51:06.801Z,28096.00
2018-04-10T07:52:06.789Z,26944.00
2018-04-10T07:53:06.772Z,25216.00
2018-04-10T07:54:06.776Z,23072.00
2018-04-10T07:55:06.760Z,27712.00
2018-04-10T07:56:06.750Z,27200.00
2018-04-10T07:57:06.748Z,22560.00
2018-04-10T07:58:06.740Z,18720.00
2018-04-10T07:59:06.740Z,18880.00
2018-04-10T08:00:06.728Z,25280.00
2018-04-10T08:01:06.724Z,28704.00
2018-04-10T08:02:06.713Z,32192.00
2018-04-10T08:03:06.704Z,44224.00
2018-04-10T08:04:06.730Z,39264.00
2018-04-10T08:05:06.699Z,33120.00
2018-04-10T08:06:06.684Z,35872.00
2018-04-10T08:07:06.682Z,49696.00
2018-04-10T08:08:06.679Z,58016.00
2018-04-10T08:09:06.665Z,57792.00
2018-04-10T08:10:06.663Z,51840.00
2018-04-10T08:11:06.655Z,42272.00
2018-04-10T08:12:06.651Z,37856.00
2018-04-10T08:13:06.644Z,47488.00
2018-04-10T08:14:06.639Z,55456.00
2018-04-10T08:15:06.635Z,39584.00
2018-04-10T08:16:06.632Z,32512.00
2018-04-10T08:17:06.624Z,35936.00
2018-04-10T08:18:06.622Z,54176.00
2018-04-10T08:19:06.619Z,42656.00
2018-04-10T08:20:06.623Z,39776.00
2018-04-10T08:21:06.617Z,43488.00
2018-04-10T08:22:06.600Z,37088.00
2018-04-10T08:23:06.598Z,44128.00
2018-04-10T08:24:06.593Z,58976.00
2018-04-10T08:25:06.691Z,60000.00
2018-04-10T08:26:06.584Z,61120.00
2018-04-10T08:27:06.577Z,69088.00
2018-04-10T08:28:06.574Z,62944.00
2018-04-10T08:29:06.570Z,50112.00
2018-04-10T08:30:06.570Z,49312.00
2018-04-10T08:31:06.571Z,48224.00
2018-04-10T08:32:06.563Z,49504.00
2018-04-10T08:33:06.564Z,44928.00
2018-04-10T08:34:06.555Z,44672.00
2018-04-10T08:35:06.614Z,48416.00
2018-04-10T08:36:06.555Z,42176.00
2018-04-10T08:37:06.548Z,42272.00
2018-04-10T08:38:06.548Z,35040.00
2018-04-10T08:39:06.541Z,34752.00
2018-04-10T08:40:06.541Z,39200.00
2018-04-10T08:41:06.539Z,35680.00
2018-04-10T08:42:06.534Z,36064.00
2018-04-10T08:43:06.527Z,35680.00
2018-04-10T08:44:06.532Z,33664.00
2018-04-10T08:45:06.539Z,36128.00
2018-04-10T08:46:06.526Z,43040.00
2018-04-10T08:47:06.526Z,53728.00
2018-04-10T08:48:06.532Z,49312.00
2018-04-10T08:49:06.506Z,48288.00
2018-04-10T08:50:06.513Z,40576.00
2018-04-10T08:51:06.508Z,37952.00
2018-04-10T08:52:06.504Z,27392.00
2018-04-10T08:53:06.501Z,26144.00
2018-04-10T08:54:06.501Z,28896.00
2018-04-10T08:55:06.500Z,36928.00
2018-04-10T08:56:06.487Z,41248.00
2018-04-10T08:57:06.484Z,40032.00
2018-04-10T08:58:06.482Z,45344.00
2018-04-10T08:59:06.482Z,40800.00
2018-04-10T09:00:06.474Z,44608.00
2018-04-10T09:01:06.575Z,55296.00
2018-04-10T09:02:06.490Z,63776.00
2018-04-10T09:03:06.476Z,57568.00
2018-04-10T09:04:06.467Z,50528.00
2018-04-10T09:05:06.465Z,43744.00
2018-04-10T09:06:06.459Z,58112.00
2018-04-10T09:07:06.454Z,62016.00
2018-04-10T09:08:06.451Z,58464.00
2018-04-10T09:09:06.452Z,60352.00
2018-04-10T09:10:06.446Z,58752.00
2018-04-10T09:11:06.460Z,57376.00
2018-04-10T09:12:06.442Z,56704.00
2018-04-10T09:13:06.441Z,60512.00
2018-04-10T09:14:06.458Z,63680.00
2018-04-10T09:15:06.437Z,63616.00
2018-04-10T09:16:06.447Z,60320.00
2018-04-10T09:17:06.438Z,63712.00
2018-04-10T09:18:06.434Z,65920.00
2018-04-10T09:19:06.513Z,57440.00
2018-04-10T09:20:06.452Z,52832.00
2018-04-10T09:21:06.432Z,53280.00
2018-04-10T09:22:06.485Z,53440.00
2018-04-10T09:23:06.431Z,52608.00
2018-04-10T09:24:06.429Z,64064.00
2018-04-10T09:25:06.434Z,69728.00
2018-04-10T09:26:06.431Z,75904.00
2018-04-10T09:27:06.433Z,73504.00
2018-04-10T09:28:06.431Z,63328.00
2018-04-10T09:29:06.491Z,60096.00
2018-04-10T09:30:06.435Z,67584.00
2018-04-10T09:31:06.440Z,62848.00
2018-04-10T09:32:06.579Z,61088.00
2018-04-10T09:33:06.441Z,63168.00
2018-04-10T09:34:06.439Z,77216.00
2018-04-10T09:35:06.443Z,63840.00
2018-04-10T09:36:06.440Z,74912.00
2018-04-10T09:37:06.442Z,78368.00
2018-04-10T09:38:06.442Z,65472.00
2018-04-10T09:39:06.448Z,76544.00
2018-04-10T09:40:06.447Z,64672.00
2018-04-10T09:41:06.457Z,75040.00
2018-04-10T09:42:06.459Z,65920.00
2018-04-10T09:43:06.452Z,75712.00
2018-04-10T09:44:06.460Z,75520.00
2018-04-10T09:45:06.460Z,78592.00
2018-04-10T09:46:06.467Z,80992.00
2018-04-10T09:47:06.466Z,81120.00
2018-04-10T09:48:06.469Z,79840.00
2018-04-10T09:49:06.495Z,76288.00
2018-04-10T09:50:06.471Z,73952.00
2018-04-10T09:51:06.474Z,72224.00
2018-04-10T09:52:06.500Z,73984.00
2018-04-10T09:53:06.481Z,75264.00
2018-04-10T09:54:06.491Z,75328.00
2018-04-10T09:55:06.548Z,77632.00
2018-04-10T09:56:06.502Z,78304.00
2018-04-10T09:57:06.494Z,78560.00
2018-04-10T09:58:06.500Z,78528.00
2018-04-10T09:59:06.497Z,79104.00
2018-04-10T10:00:06.501Z,76288.00
2018-04-10T10:01:06.508Z,74016.00
2018-04-10T10:02:06.516Z,72640.00
2018-04-10T10:03:06.517Z,72960.00
2018-04-10T10:04:06.519Z,73376.00
2018-04-10T10:05:06.642Z,76096.00
2018-04-10T10:06:06.526Z,78336.00
2018-04-10T10:07:06.528Z,78496.00
2018-04-10T10:08:06.534Z,78304.00
2018-04-10T10:09:06.535Z,79584.00
2018-04-10T10:10:06.538Z,78816.00
2018-04-10T10:11:06.557Z,74560.00
2018-04-10T10:12:06.551Z,71648.00
2018-04-10T10:13:06.555Z,74144.00
2018-04-10T10:14:06.579Z,78272.00
2018-04-10T10:15:06.565Z,82496.00
2018-04-10T10:16:06.575Z,81216.00
2018-04-10T10:17:06.575Z,74400.00
2018-04-10T10:18:06.584Z,70336.00
2018-04-10T10:19:06.585Z,78336.00
2018-04-10T10:20:06.590Z,60960.00
2018-04-10T10:21:06.595Z,73952.00
2018-04-10T10:22:06.597Z,65984.00
2018-04-10T10:23:06.691Z,67744.00
2018-04-10T10:24:06.606Z,59168.00
2018-04-10T10:25:06.617Z,63264.00
2018-04-10T10:26:06.615Z,62848.00
2018-04-10T10:27:06.625Z,63616.00
2018-04-10T10:28:06.628Z,61728.00
2018-04-10T10:29:06.628Z,57632.00
2018-04-10T10:30:06.633Z,63808.00
2018-04-10T10:31:06.641Z,70368.00
2018-04-10T10:32:06.642Z,70880.00
2018-04-10T10:33:06.657Z,65920.00
2018-04-10T10:34:06.653Z,62112.00
2018-04-10T10:35:06.652Z,68960.00
2018-04-10T10:36:06.662Z,62304.00
2018-04-10T10:37:06.661Z,68192.00
2018-04-10T10:38:06.664Z,63392.00
2018-04-10T10:39:06.671Z,60064.00
2018-04-10T10:40:06.672Z,55072.00
2018-04-10T10:41:06.676Z,63232.00
2018-04-10T10:42:06.682Z,55424.00
2018-04-10T10:43:06.683Z,66240.00
2018-04-10T10:44:06.686Z,67360.00
2018-04-10T10:45:06.711Z,69824.00
2018-04-10T10:46:06.699Z,72064.00
2018-04-10T10:47:06.707Z,67136.00
2018-04-10T10:48:06.709Z,65824.00
2018-04-10T10:49:06.705Z,48800.00
2018-04-10T10:50:06.713Z,55232.00
2018-04-10T10:51:06.713Z,60448.00
2018-04-10T10:52:06.720Z,63328.00
2018-04-10T10:53:06.721Z,63328.00
2018-04-10T10:54:06.725Z,65344.00
2018-04-10T10:55:06.739Z,63712.00
2018-04-10T10:56:06.739Z,59136.00
2018-04-10T10:57:06.737Z,63776.00
2018-04-10T10:58:06.756Z,64832.00
2018-04-10T10:59:06.743Z,63584.00
2018-04-10T11:00:06.751Z,59520.00
2018-04-10T11:01:06.777Z,64960.00
2018-04-10T11:02:06.754Z,69856.00
2018-04-10T11:03:06.760Z,70400.00
2018-04-10T11:04:06.763Z,69152.00
2018-04-10T11:05:06.769Z,70208.00
2018-04-10T11:06:06.894Z,69984.00
2018-04-10T11:07:06.775Z,67968.00
2018-04-10T11:08:06.787Z,66048.00
2018-04-10T11:09:06.785Z,65696.00
2018-04-10T11:10:06.789Z,61408.00
2018-04-10T11:11:06.792Z,62240.00
2018-04-10T11:12:06.798Z,62976.00
2018-04-10T11:13:06.798Z,66208.00
2018-04-10T11:14:06.804Z,57536.00
2018-04-10T11:15:06.808Z,60064.00
2018-04-10T11:16:06.819Z,61184.00
2018-04-10T11:17:06.813Z,54784.00
2018-04-10T11:18:06.820Z,56192.00
2018-04-10T11:19:06.826Z,62976.00
2018-04-10T11:20:06.832Z,50560.00
2018-04-10T11:21:06.832Z,53632.00
2018-04-10T11:22:06.837Z,63552.00
2018-04-10T11:23:06.836Z,53280.00
2018-04-10T11:24:06.889Z,56896.00
2018-04-10T11:25:06.858Z,57440.00
2018-04-10T11:26:06.861Z,62464.00
2018-04-10T11:27:06.852Z,64224.00
2018-04-10T11:28:06.875Z,62912.00
2018-04-10T11:29:06.862Z,62720.00
2018-04-10T11:30:06.868Z,61664.00
2018-04-10T11:31:06.867Z,62720.00
2018-04-10T11:32:06.869Z,60800.00
2018-04-10T11:33:06.885Z,61376.00
2018-04-10T11:34:06.877Z,61312.00
2018-04-10T11:35:06.879Z,61440.00
2018-04-10T11:36:06.884Z,62944.00
2018-04-10T11:37:06.888Z,64000.00
2018-04-10T11:38:06.890Z,61088.00
2018-04-10T11:39:06.898Z,60768.00
2018-04-10T11:40:06.906Z,60768.00
2018-04-10T11:41:06.950Z,56960.00
2018-04-10T11:42:06.902Z,55200.00
2018-04-10T11:43:06.926Z,54880.00
2018-04-10T11:44:06.909Z,54432.00
2018-04-10T11:45:06.918Z,56608.00
2018-04-10T11:46:06.922Z,60608.00
2018-04-10T11:47:06.916Z,59584.00
2018-04-10T11:48:06.919Z,58144.00
2018-04-10T11:49:06.919Z,55616.00
2018-04-10T11:50:06.929Z,52256.00
2018-04-10T11:51:06.935Z,51520.00
2018-04-10T11:52:06.927Z,51712.00
2018-04-10T11:53:06.929Z,53408.00
2018-04-10T11:54:06.935Z,55584.00
2018-04-10T11:55:06.925Z,55616.00
2018-04-10T11:56:06.931Z,36448.00
2018-04-10T11:57:06.929Z,19424.00
2018-04-10T11:58:06.933Z,17952.00
2018-04-10T11:59:06.932Z,17196.00
2018-04-10T12:00:06.938Z,16728.00
2018-04-10T12:01:06.935Z,16232.00
2018-04-10T12:02:06.930Z,15540.00
2018-04-10T12:03:06.928Z,14416.00
2018-04-10T12:04:07.012Z,14648.00
2018-04-10T12:05:06.927Z,14708.00
2018-04-10T12:06:06.933Z,14592.00
2018-04-10T12:07:06.924Z,14316.00
2018-04-10T12:08:06.929Z,13932.00
2018-04-10T12:09:06.924Z,13772.00
2018-04-10T12:10:06.918Z,13756.00
2018-04-10T12:11:06.915Z,13768.00
2018-04-10T12:12:06.918Z,13656.00
2018-04-10T12:13:06.915Z,13412.00
2018-04-10T12:14:06.907Z,13376.00
2018-04-10T12:15:06.906Z,13468.00
2018-04-10T12:16:06.943Z,13348.00
2018-04-10T12:17:07.011Z,13032.00
2018-04-10T12:18:06.903Z,12492.00
2018-04-10T12:19:06.903Z,12064.00